| time (UTC) | temp F | wind direction | speed MPH | gust MPH | rain 1hr in | rain 24hr in | rain mn in | humidity % | barometer mb |
| 20260508080021 | 40 | 312 | 2.0 | 3.0 | 0.00 | 0.00 | 0.00 | 77 | 1006.7 |
| 20260508075024 | 41 | 327 | 2.0 | 4.0 | 0.00 | 0.00 | 0.00 | 73 | 1006.6 |
| 20260508074108 | 41 | 329 | 3.0 | 5.0 | 0.00 | 0.00 | 0.00 | 72 | 1006.6 |
| 20260508073031 | 41 | 316 | 4.0 | 6.0 | 0.00 | 0.00 | 0.00 | 73 | 1006.6 |
| 20260508072016 | 41 | 301 | 3.0 | 4.0 | 0.00 | 0.00 | 0.00 | 73 | 1006.6 |
| 20260508071019 | 42 | 334 | 4.0 | 5.0 | 0.00 | 0.00 | 0.00 | 70 | 1006.7 |
| 20260508070022 | 42 | 333 | 3.0 | 5.0 | 0.00 | 0.01 | 0.00 | 69 | 1006.8 |
| 20260508065025 | 42 | 327 | 3.0 | 4.0 | 0.00 | 0.01 | 0.00 | 69 | 1006.8 |
| 20260508064023 | 42 | 345 | 3.0 | 5.0 | 0.00 | 0.01 | 0.00 | 69 | 1006.8 |
| 20260508063040 | 42 | 335 | 3.0 | 5.0 | 0.00 | 0.01 | 0.00 | 69 | 1006.9 |
| 20260508062017 | 42 | 13 | 3.0 | 4.0 | 0.00 | 0.02 | 0.00 | 69 | 1007.0 |
| 20260508061021 | 42 | 310 | 3.0 | 4.0 | 0.00 | 0.02 | 0.00 | 68 | 1007.0 |
| 20260508060024 | 42 | 348 | 4.0 | 5.0 | 0.00 | 0.02 | 0.00 | 68 | 1007.1 |
| 20260508055047 | 41 | 328 | 4.0 | 9.0 | 0.00 | 0.04 | 0.00 | 69 | 1007.1 |
| 20260508054030 | 40 | 307 | 3.0 | 4.0 | 0.00 | 0.07 | 0.00 | 77 | 1007.2 |
| 20260508053035 | 40 | 313 | 3.0 | 4.0 | 0.00 | 0.12 | 0.00 | 75 | 1007.3 |
| 20260508052018 | 41 | 288 | 2.0 | 3.0 | 0.00 | 0.18 | 0.00 | 74 | 1007.4 |
| 20260508051021 | 42 | 0.0 | 2.0 | 0.00 | 0.19 | 0.00 | 71 | 1007.5 | |
| 20260508050024 | 42 | 10 | 2.0 | 3.0 | 0.00 | 0.19 | 0.00 | 67 | 1007.3 |
| 20260508045028 | 41 | 320 | 3.0 | 6.0 | 0.00 | 0.19 | 0.00 | 71 | 1007.4 |
| 20260508044031 | 40 | 303 | 3.0 | 4.0 | 0.00 | 0.19 | 0.00 | 78 | 1007.4 |
| 20260508043016 | 41 | 325 | 3.0 | 5.0 | 0.00 | 0.19 | 0.00 | 72 | 1007.5 |
| 20260508042019 | 41 | 338 | 3.0 | 4.0 | 0.00 | 0.20 | 0.00 | 73 | 1007.5 |
| 20260508041102 | 40 | 291 | 2.0 | 3.0 | 0.00 | 0.20 | 0.00 | 78 | 1007.8 |
| 20260508040026 | 41 | 0.0 | 0.0 | 0.00 | 0.20 | 0.00 | 76 | 1007.9 | |
| 20260508035048 | 42 | 0.0 | 0.0 | 0.00 | 0.20 | 0.20 | 66 | 1007.9 | |
| 20260508034032 | 43 | 225 | 0.0 | 2.0 | 0.00 | 0.20 | 0.20 | 63 | 1007.9 |
| 20260508033036 | 44 | 337 | 1.0 | 3.0 | 0.00 | 0.20 | 0.20 | 62 | 1007.9 |
| 20260508032040 | 44 | 273 | 3.0 | 4.0 | 0.00 | 0.20 | 0.20 | 60 | 1007.8 |
| 20260508031023 | 45 | 354 | 1.0 | 3.0 | 0.00 | 0.20 | 0.20 | 60 | 1007.6 |
| 20260508030020 | 45 | 285 | 2.0 | 4.0 | 0.00 | 0.20 | 0.20 | 60 | 1007.6 |
| 20260508025017 | 46 | 350 | 4.0 | 7.0 | 0.00 | 0.20 | 0.20 | 57 | 1007.6 |
| 20260508024032 | 46 | 305 | 3.0 | 4.0 | 0.00 | 0.20 | 0.20 | 58 | 1007.6 |
| 20260508023017 | 46 | 314 | 3.0 | 5.0 | 0.00 | 0.21 | 0.20 | 55 | 1007.4 |
| 20260508022101 | 47 | 335 | 4.0 | 6.0 | 0.00 | 0.21 | 0.20 | 55 | 1007.5 |
| 20260508021023 | 47 | 319 | 4.0 | 8.0 | 0.00 | 0.21 | 0.20 | 57 | 1007.4 |
| 20260508020046 | 47 | 318 | 4.0 | 6.0 | 0.00 | 0.22 | 0.20 | 59 | 1007.5 |
| 20260508015029 | 48 | 328 | 4.0 | 5.0 | 0.00 | 0.22 | 0.20 | 57 | 1007.5 |
| 20260508014032 | 48 | 347 | 3.0 | 5.0 | 0.00 | 0.23 | 0.20 | 55 | 1007.5 |
| 20260508013017 | 48 | 315 | 3.0 | 5.0 | 0.00 | 0.23 | 0.20 | 56 | 1007.4 |
| 20260508012020 | 49 | 344 | 3.0 | 6.0 | 0.00 | 0.24 | 0.20 | 55 | 1007.3 |
| 20260508011023 | 49 | 316 | 2.0 | 4.0 | 0.00 | 0.24 | 0.20 | 54 | 1007.2 |
| 20260508010026 | 50 | 347 | 4.0 | 7.0 | 0.00 | 0.25 | 0.20 | 52 | 1007.1 |
| 20260508005029 | 51 | 341 | 6.0 | 9.0 | 0.00 | 0.25 | 0.20 | 50 | 1007.0 |
| 20260508004052 | 51 | 340 | 5.0 | 8.0 | 0.00 | 0.25 | 0.20 | 50 | 1006.9 |
| 20260508003018 | 52 | 353 | 5.0 | 9.0 | 0.00 | 0.25 | 0.20 | 51 | 1006.7 |
| 20260508002021 | 52 | 349 | 5.0 | 9.0 | 0.00 | 0.25 | 0.20 | 50 | 1006.6 |
| 20260508001023 | 53 | 333 | 3.0 | 4.0 | 0.00 | 0.25 | 0.20 | 49 | 1006.3 |
| 20260508000027 | 53 | 5 | 5.0 | 8.0 | 0.00 | 0.25 | 0.20 | 48 | 1006.2 |
| 20260507235023 | 54 | 23 | 4.0 | 6.0 | 0.00 | 0.26 | 0.20 | 48 | 1006.0 |
| 20260507234021 | 55 | 345 | 5.0 | 7.0 | 0.00 | 0.28 | 0.20 | 50 | 1005.8 |
| 20260507233018 | 55 | 328 | 4.0 | 6.0 | 0.00 | 0.29 | 0.20 | 50 | 1005.7 |
| 20260507232033 | 56 | 10 | 5.0 | 9.0 | 0.00 | 0.30 | 0.20 | 48 | 1005.4 |
| 20260507231018 | 58 | 358 | 6.0 | 9.0 | 0.00 | 0.30 | 0.20 | 46 | 1005.1 |
| 20260507230021 | 58 | 319 | 5.0 | 6.0 | 0.00 | 0.31 | 0.20 | 42 | 1004.9 |
| 20260507225024 | 59 | 315 | 5.0 | 11.0 | 0.00 | 0.34 | 0.20 | 42 | 1004.6 |
| 20260507224027 | 59 | 345 | 4.0 | 6.0 | 0.00 | 0.38 | 0.20 | 41 | 1004.4 |
| 20260507223030 | 60 | 316 | 5.0 | 7.0 | 0.00 | 0.40 | 0.20 | 41 | 1004.3 |
| 20260507222016 | 59 | 358 | 5.0 | 8.0 | 0.00 | 0.42 | 0.20 | 44 | 1004.2 |
| 20260507221019 | 58 | 315 | 4.0 | 7.0 | 0.00 | 0.44 | 0.20 | 57 | 1004.2 |
| 20260507220022 | 57 | 119 | 2.0 | 5.0 | 0.00 | 0.47 | 0.20 | 74 | 1004.4 |
| 20260507215025 | 57 | 149 | 2.0 | 3.0 | 0.00 | 0.49 | 0.20 | 76 | 1004.3 |
| 20260507214028 | 56 | 135 | 4.0 | 5.0 | 0.00 | 0.50 | 0.20 | 78 | 1004.3 |
| 20260507213031 | 55 | 95 | 3.0 | 4.0 | 0.00 | 0.51 | 0.20 | 80 | 1004.3 |
| 20260507212016 | 57 | 107 | 4.0 | 6.0 | 0.00 | 0.53 | 0.20 | 77 | 1004.4 |
| 20260507211019 | 57 | 137 | 4.0 | 7.0 | 0.00 | 0.54 | 0.20 | 78 | 1004.2 |
| 20260507210022 | 59 | 70 | 4.0 | 6.0 | 0.00 | 0.55 | 0.20 | 73 | 1004.1 |
| 20260507205045 | 58 | 135 | 0.0 | 3.0 | 0.00 | 0.56 | 0.20 | 75 | 1004.0 |
| 20260507204028 | 58 | 113 | 2.0 | 4.0 | 0.00 | 0.57 | 0.20 | 75 | 1004.0 |
| 20260507203025 | 57 | 193 | 2.0 | 3.0 | 0.00 | 0.59 | 0.20 | 74 | 1004.0 |
| 20260507202016 | 58 | 180 | 1.0 | 4.0 | 0.00 | 0.60 | 0.20 | 73 | 1004.1 |
| 20260507201019 | 57 | 152 | 5.0 | 7.0 | 0.00 | 0.60 | 0.20 | 76 | 1004.2 |
| 20260507200016 | 55 | 163 | 5.0 | 9.0 | 0.00 | 0.60 | 0.20 | 78 | 1004.3 |
| 20260507195025 | 56 | 192 | 6.0 | 8.0 | 0.00 | 0.60 | 0.20 | 76 | 1004.3 |
| 20260507194028 | 56 | 172 | 5.0 | 9.0 | 0.00 | 0.60 | 0.20 | 78 | 1004.3 |
| 20260507193031 | 56 | 201 | 6.0 | 8.0 | 0.00 | 0.60 | 0.20 | 79 | 1004.4 |
| 20260507192016 | 54 | 192 | 5.0 | 8.0 | 0.00 | 0.60 | 0.20 | 80 | 1004.4 |
| 20260507191019 | 56 | 191 | 6.0 | 8.0 | 0.00 | 0.60 | 0.20 | 78 | 1004.5 |
| 20260507190022 | 55 | 184 | 4.0 | 9.0 | 0.00 | 0.60 | 0.20 | 78 | 1004.7 |
| 20260507185025 | 56 | 195 | 5.0 | 7.0 | 0.00 | 0.60 | 0.20 | 76 | 1004.7 |
| 20260507184029 | 56 | 206 | 3.0 | 5.0 | 0.00 | 0.60 | 0.20 | 76 | 1004.8 |
| 20260507183031 | 55 | 203 | 4.0 | 7.0 | 0.00 | 0.60 | 0.20 | 76 | 1004.9 |
| 20260507182017 | 56 | 236 | 5.0 | 8.0 | 0.00 | 0.60 | 0.20 | 76 | 1005.0 |
| 20260507181019 | 56 | 241 | 3.0 | 6.0 | 0.00 | 0.60 | 0.20 | 74 | 1005.0 |
| 20260507180022 | 55 | 211 | 7.0 | 10.0 | 0.00 | 0.60 | 0.20 | 77 | 1005.2 |
| 20260507175025 | 56 | 227 | 5.0 | 7.0 | 0.00 | 0.60 | 0.20 | 73 | 1005.1 |
| 20260507174028 | 56 | 210 | 6.0 | 10.0 | 0.00 | 0.60 | 0.20 | 75 | 1005.1 |
| 20260507173030 | 57 | 235 | 4.0 | 6.0 | 0.00 | 0.60 | 0.20 | 73 | 1005.2 |
| 20260507172015 | 57 | 189 | 5.0 | 9.0 | 0.00 | 0.62 | 0.20 | 74 | 1005.1 |
| 20260507171039 | 59 | 182 | 6.0 | 10.0 | 0.00 | 0.62 | 0.20 | 72 | 1005.2 |
| 20260507170022 | 56 | 209 | 6.0 | 9.0 | 0.00 | 0.62 | 0.20 | 76 | 1005.4 |
| 20260507165019 | 57 | 214 | 4.0 | 6.0 | 0.00 | 0.62 | 0.20 | 74 | 1005.5 |
| 20260507164016 | 57 | 188 | 4.0 | 7.0 | 0.00 | 0.62 | 0.20 | 73 | 1005.5 |
| 20260507163032 | 58 | 172 | 6.0 | 10.0 | 0.00 | 0.62 | 0.20 | 73 | 1005.5 |
| 20260507162017 | 55 | 190 | 5.0 | 8.0 | 0.00 | 0.62 | 0.20 | 75 | 1005.6 |
| 20260507161020 | 57 | 132 | 6.0 | 8.0 | 0.00 | 0.62 | 0.20 | 71 | 1005.6 |
| 20260507160023 | 59 | 121 | 6.0 | 8.0 | 0.00 | 0.62 | 0.20 | 65 | 1005.8 |
| 20260507155027 | 60 | 195 | 6.0 | 7.0 | 0.00 | 0.62 | 0.20 | 63 | 1005.9 |
| 20260507154030 | 57 | 158 | 6.0 | 7.0 | 0.00 | 0.62 | 0.20 | 67 | 1005.9 |
| 20260507153015 | 58 | 149 | 7.0 | 8.0 | 0.00 | 0.62 | 0.20 | 66 | 1006.0 |
| 20260507152018 | 58 | 170 | 5.0 | 7.0 | 0.00 | 0.62 | 0.20 | 67 | 1006.2 |
| 20260507151021 | 58 | 205 | 5.0 | 7.0 | 0.00 | 0.62 | 0.20 | 68 | 1006.2 |
| 20260507150024 | 57 | 161 | 8.0 | 9.0 | 0.00 | 0.62 | 0.20 | 69 | 1006.3 |
| 20260507145027 | 58 | 210 | 6.0 | 8.0 | 0.00 | 0.62 | 0.20 | 69 | 1006.4 |
| 20260507144050 | 57 | 185 | 5.0 | 8.0 | 0.00 | 0.62 | 0.20 | 72 | 1006.4 |
| 20260507143015 | 58 | 187 | 5.0 | 7.0 | 0.00 | 0.62 | 0.20 | 69 | 1006.6 |
| 20260507142018 | 59 | 155 | 4.0 | 7.0 | 0.00 | 0.62 | 0.20 | 66 | 1006.7 |
| 20260507141021 | 60 | 66 | 4.0 | 7.0 | 0.00 | 0.62 | 0.20 | 61 | 1006.8 |
| 20260507140024 | 61 | 158 | 2.0 | 3.0 | 0.00 | 0.62 | 0.20 | 62 | 1006.6 |
| 20260507135027 | 59 | 31 | 3.0 | 4.0 | 0.00 | 0.62 | 0.20 | 63 | 1006.7 |
| 20260507134023 | 59 | 8 | 3.0 | 4.0 | 0.00 | 0.62 | 0.20 | 66 | 1006.8 |
| 20260507133022 | 58 | 358 | 4.0 | 6.0 | 0.00 | 0.62 | 0.20 | 67 | 1006.9 |
| 20260507132018 | 58 | 73 | 5.0 | 9.0 | 0.00 | 0.62 | 0.20 | 69 | 1006.9 |
| 20260507131032 | 57 | 352 | 4.0 | 6.0 | 0.00 | 0.62 | 0.20 | 70 | 1006.7 |
| 20260507130016 | 56 | 28 | 4.0 | 6.0 | 0.00 | 0.62 | 0.20 | 72 | 1007.0 |
| 20260507125039 | 56 | 38 | 4.0 | 7.0 | 0.00 | 0.62 | 0.20 | 73 | 1007.0 |
| 20260507124042 | 56 | 349 | 4.0 | 7.0 | 0.00 | 0.62 | 0.20 | 74 | 1006.8 |
| 20260507123026 | 55 | 348 | 4.0 | 7.0 | 0.00 | 0.62 | 0.20 | 78 | 1006.7 |
| 20260507122028 | 54 | 359 | 3.0 | 6.0 | 0.00 | 0.62 | 0.20 | 82 | 1006.9 |
| 20260507121052 | 53 | 5 | 3.0 | 6.0 | 0.00 | 0.62 | 0.20 | 84 | 1006.9 |
| 20260507120017 | 51 | 328 | 2.0 | 3.0 | 0.00 | 0.62 | 0.20 | 88 | 1007.3 |
| 20260507115019 | 51 | 0.0 | 0.0 | 0.00 | 0.62 | 0.20 | 91 | 1007.2 | |
| 20260507114022 | 50 | 354 | 3.0 | 4.0 | 0.00 | 0.62 | 0.20 | 91 | 1007.3 |
| 20260507113045 | 51 | 211 | 1.0 | 2.0 | 0.00 | 0.62 | 0.20 | 92 | 1007.7 |
| 20260507112028 | 50 | 44 | 1.0 | 3.0 | 0.00 | 0.62 | 0.20 | 95 | 1006.9 |
| 20260507111051 | 51 | 7 | 1.0 | 4.0 | 0.00 | 0.62 | 0.20 | 94 | 1007.6 |
| 20260507110016 | 49 | 248 | 0.0 | 2.0 | 0.00 | 0.62 | 0.20 | 98 | 1007.0 |
| 20260507105019 | 49 | 347 | 2.0 | 5.0 | 0.00 | 0.62 | 0.20 | 97 | 1007.1 |
| 20260507104022 | 48 | 322 | 3.0 | 4.0 | 0.00 | 0.62 | 0.20 | 99 | 1006.9 |
| 20260507103025 | 48 | 346 | 3.0 | 4.0 | 0.00 | 0.62 | 0.20 | 99 | 1006.6 |
| 20260507102022 | 47 | 353 | 1.0 | 5.0 | 0.00 | 0.62 | 0.20 | 99 | 1007.0 |
| 20260507101021 | 45 | 0.0 | 0.0 | 0.00 | 0.62 | 0.20 | 99 | 1006.5 | |
| 20260507100016 | 46 | 0.0 | 0.0 | 0.00 | 0.62 | 0.20 | 99 | 1006.4 | |
| 20260507095031 | 46 | 347 | 2.0 | 4.0 | 0.00 | 0.62 | 0.20 | 99 | 1006.7 |
| 20260507094016 | 46 | 0.0 | 0.0 | 0.00 | 0.62 | 0.20 | 99 | 1006.7 | |
| 20260507093019 | 46 | 282 | 1.0 | 4.0 | 0.00 | 0.62 | 0.20 | 99 | 1006.6 |
| 20260507092022 | 46 | 248 | 1.0 | 2.0 | 0.00 | 0.62 | 0.20 | 99 | 1006.6 |
| 20260507091025 | 46 | 5 | 2.0 | 5.0 | 0.00 | 0.62 | 0.20 | 99 | 1007.1 |
| 20260507090028 | 46 | 355 | 1.0 | 4.0 | 0.00 | 0.62 | 0.20 | 99 | 1006.3 |
| 20260507085031 | 46 | 0.0 | 0.0 | 0.00 | 0.62 | 0.20 | 99 | 1006.4 | |
| 20260507084039 | 46 | 270 | 0.0 | 2.0 | 0.00 | 0.62 | 0.20 | 99 | 1006.3 |
| 20260507083040 | 46 | 68 | 0.0 | 2.0 | 0.00 | 0.62 | 0.20 | 99 | 1006.1 |
| 20260507082042 | 46 | 37 | 1.0 | 3.0 | 0.00 | 0.62 | 0.20 | 99 | 1006.2 |
| 20260507081025 | 47 | 9 | 1.0 | 3.0 | 0.00 | 0.62 | 0.20 | 99 | 1006.1 |